Terminal Aerodrome Forecast
Issued by NWS

Home | Current Version | Previous Version | Text Only | Print | Product List | Glossary On
Versions: 1 2 3 4 5 6 7 8 9 10 11 12 13 14 15
643
FTUS42 KMLB 201122
TAFTIX
TAF
KTIX 201122Z 2012/2112 VRB04KT P6SM FEW017 BKN120 BKN250
     FM201400 08006KT P6SM SCT025 BKN250
     FM201800 11010KT P6SM VCSH SCT035 BKN200
     FM210000 12005KT P6SM VCSH SCT035 SCT150 OVC200=

USA.gov is the U.S. government's official web portal to all federal, state and local government web resources and services.